Time;durP1;ratioP1;P1;durP2;ratioP2;P2;SDS_P1;SDS_P2;PMS_P1;PMS_P2;Temp;Humidity;BMP_temperature;BMP_pressure;BME280_temperature;BME280_humidity;BME280_pressure;Samples;Min_cycle;Max_cycle;Signal;HPM_P1;HPM_P2
2023/11/08 00:00:13;;;;;;;0.30;0.20;;;15.50;99.90;;;;;;5107259;28;20411;-85
2023/11/08 00:02:39;;;;;;;0.30;0.30;;;15.50;99.90;;;;;;5107863;28;20777;-78
2023/11/08 00:05:05;;;;;;;0.57;0.57;;;15.50;99.90;;;;;;5109459;27;20412;-78
2023/11/08 00:07:31;;;;;;;0.30;0.20;;;15.50;99.90;;;;;;5107917;28;20823;-87
2023/11/08 00:09:57;;;;;;;0.30;0.20;;;15.50;99.90;;;;;;5107533;28;20432;-86
2023/11/08 00:12:24;;;;;;;0.30;0.20;;;15.50;99.90;;;;;;5107630;28;20457;-78
2023/11/08 00:14:50;;;;;;;0.30;0.20;;;15.50;99.90;;;;;;5106982;28;20227;-86
2023/11/08 00:17:16;;;;;;;0.30;0.20;;;15.50;99.90;;;;;;5108802;28;20948;-78
2023/11/08 00:19:42;;;;;;;5.83;5.27;;;15.50;99.90;;;;;;5109010;28;20454;-86
2023/11/08 00:22:07;;;;;;;0.30;0.20;;;15.60;99.90;;;;;;5108839;28;20183;-85
2023/11/08 00:24:33;;;;;;;0.30;0.20;;;15.60;99.90;;;;;;5107220;28;20204;-78
2023/11/08 00:26:59;;;;;;;0.30;0.20;;;15.50;99.90;;;;;;5107229;28;20171;-85
2023/11/08 00:29:25;;;;;;;0.30;0.20;;;15.60;99.90;;;;;;5108973;28;20196;-86
2023/11/08 00:31:51;;;;;;;0.30;0.20;;;15.60;99.90;;;;;;5107123;28;20654;-86
2023/11/08 00:34:17;;;;;;;0.40;0.40;;;15.50;99.90;;;;;;5108705;28;20199;-85
2023/11/08 00:36:45;;;;;;;1.43;1.33;;;15.50;99.90;;;;;;5107017;28;20274;-85
2023/11/08 00:39:10;;;;;;;0.30;0.20;;;15.50;99.90;;;;;;5108949;27;20472;-86
2023/11/08 00:41:36;;;;;;;0.30;0.20;;;15.50;99.90;;;;;;5107013;28;20419;-78
2023/11/08 00:44:02;;;;;;;0.30;0.20;;;15.50;99.90;;;;;;5108348;28;20195;-78
2023/11/08 00:46:28;;;;;;;0.30;0.20;;;15.50;99.90;;;;;;5108400;28;20192;-78
2023/11/08 00:48:54;;;;;;;0.30;0.20;;;15.40;99.90;;;;;;5107735;28;20505;-85
2023/11/08 00:51:20;;;;;;;1.33;1.23;;;15.40;99.90;;;;;;5108007;28;20255;-78
2023/11/08 00:53:47;;;;;;;0.30;0.30;;;15.40;99.90;;;;;;5107194;28;20568;-80
2023/11/08 00:56:13;;;;;;;0.30;0.20;;;15.40;99.90;;;;;;5108076;28;20236;-86
2023/11/08 00:58:39;;;;;;;0.30;0.20;;;15.40;99.90;;;;;;5106679;28;20503;-86
2023/11/08 01:01:05;;;;;;;0.30;0.20;;;15.30;99.90;;;;;;5107931;28;20395;-87
2023/11/08 01:03:32;;;;;;;1.23;1.23;;;15.30;99.90;;;;;;5108365;28;20546;-87
2023/11/08 01:05:57;;;;;;;0.30;0.20;;;15.20;99.90;;;;;;5106211;28;21155;-79
2023/11/08 01:08:23;;;;;;;0.30;0.20;;;15.20;99.90;;;;;;5106637;28;20448;-78
2023/11/08 01:10:51;;;;;;;0.30;0.20;;;15.10;99.90;;;;;;5106784;28;20880;-81
2023/11/08 01:13:17;;;;;;;0.30;0.20;;;15.10;99.90;;;;;;5106507;28;20334;-78
2023/11/08 01:15:43;;;;;;;0.30;0.30;;;15.00;99.90;;;;;;5107376;28;20400;-85
2023/11/08 01:18:10;;;;;;;0.30;0.20;;;15.00;99.90;;;;;;5106422;28;20480;-79
2023/11/08 01:20:36;;;;;;;0.30;0.20;;;14.90;99.90;;;;;;5106440;28;20408;-86
2023/11/08 01:23:03;;;;;;;8.70;8.30;;;14.80;99.90;;;;;;5105852;28;20513;-87
2023/11/08 01:25:28;;;;;;;0.30;0.20;;;14.80;99.90;;;;;;5107750;28;20392;-86
2023/11/08 01:27:54;;;;;;;0.30;0.30;;;14.80;99.90;;;;;;5107389;28;20455;-86
2023/11/08 01:30:20;;;;;;;0.30;0.20;;;14.80;99.90;;;;;;5106525;28;20769;-78
2023/11/08 01:32:46;;;;;;;4.67;3.30;;;14.80;99.90;;;;;;5105738;28;20409;-86
2023/11/08 01:35:11;;;;;;;0.30;0.20;;;14.70;99.90;;;;;;5106239;28;20203;-85
2023/11/08 01:37:39;;;;;;;0.30;0.20;;;14.70;99.90;;;;;;5105789;28;20218;-86
2023/11/08 01:40:09;;;;;;;0.40;0.40;;;14.60;99.90;;;;;;5105775;28;20287;-78
2023/11/08 01:42:35;;;;;;;0.30;0.20;;;14.60;99.90;;;;;;5106189;28;20435;-86
2023/11/08 01:45:04;;;;;;;0.30;0.20;;;14.50;99.90;;;;;;5107109;28;20420;-83
2023/11/08 01:47:34;;;;;;;0.30;0.20;;;14.50;99.90;;;;;;5106077;28;20340;-86
2023/11/08 01:50:02;;;;;;;0.30;0.20;;;14.40;99.90;;;;;;5106825;28;20421;-85
2023/11/08 01:52:29;;;;;;;0.30;0.20;;;14.40;99.90;;;;;;5105677;28;20883;-78
2023/11/08 01:54:56;;;;;;;0.30;0.20;;;14.40;99.90;;;;;;5104212;28;20458;-78
2023/11/08 01:57:23;;;;;;;0.30;0.20;;;14.40;99.90;;;;;;5105576;28;20467;-78
2023/11/08 01:59:51;;;;;;;0.87;0.87;;;14.40;99.90;;;;;;5106964;28;20893;-78
2023/11/08 02:02:19;;;;;;;0.30;0.20;;;14.40;99.90;;;;;;5106735;28;20423;-78
2023/11/08 02:04:46;;;;;;;0.30;0.20;;;14.30;99.90;;;;;;5105848;28;20487;-78
2023/11/08 02:07:12;;;;;;;0.30;0.20;;;14.20;99.90;;;;;;5105365;28;20444;-78
2023/11/08 02:09:38;;;;;;;0.30;0.20;;;14.20;99.90;;;;;;5107025;28;20443;-77
2023/11/08 02:12:04;;;;;;;0.30;0.20;;;14.20;99.90;;;;;;5105257;28;20918;-78
2023/11/08 02:14:30;;;;;;;0.30;0.20;;;14.20;99.90;;;;;;5106337;28;20235;-85
2023/11/08 02:16:56;;;;;;;0.30;0.20;;;14.20;99.90;;;;;;5105046;28;20404;-85
2023/11/08 02:19:22;;;;;;;0.30;0.20;;;14.20;99.90;;;;;;5106863;28;20679;-78
2023/11/08 02:21:47;;;;;;;0.30;0.20;;;14.20;99.90;;;;;;5106482;28;20225;-78
2023/11/08 02:24:23;;;;;;;0.30;0.20;;;14.20;99.90;;;;;;5106684;28;20444;-86
2023/11/08 02:26:49;;;;;;;0.80;0.80;;;14.30;99.90;;;;;;5106054;28;20182;-86
2023/11/08 02:29:19;;;;;;;0.30;0.20;;;14.30;99.90;;;;;;5105045;28;20450;-86
2023/11/08 02:31:50;;;;;;;28.53;5.30;;;14.30;99.90;;;;;;5106165;28;20408;-88
2023/11/08 02:34:19;;;;;;;2.97;2.87;;;14.30;99.90;;;;;;5104730;28;20794;-78
2023/11/08 02:36:44;;;;;;;0.30;0.20;;;14.40;99.90;;;;;;5104844;28;20405;-78
2023/11/08 02:39:11;;;;;;;0.30;0.20;;;14.40;99.90;;;;;;5106352;28;20478;-86
2023/11/08 02:41:37;;;;;;;0.30;0.20;;;14.40;99.90;;;;;;5106511;28;20647;-78
2023/11/08 02:44:03;;;;;;;0.30;0.30;;;14.50;99.90;;;;;;5104668;28;20451;-86
2023/11/08 02:46:30;;;;;;;0.30;0.20;;;14.50;99.90;;;;;;5106120;28;20404;-78
2023/11/08 02:48:57;;;;;;;0.87;0.87;;;14.50;99.90;;;;;;5104514;28;20257;-86
2023/11/08 02:51:28;;;;;;;0.40;0.20;;;14.50;99.90;;;;;;5104641;28;20420;-78
2023/11/08 02:53:53;;;;;;;0.30;0.20;;;14.60;99.90;;;;;;5106040;28;20446;-78
2023/11/08 02:56:19;;;;;;;0.30;0.20;;;14.60;99.90;;;;;;5104902;28;20500;-84
2023/11/08 02:58:45;;;;;;;0.50;0.50;;;14.60;99.90;;;;;;5103484;28;20844;-86
2023/11/08 03:01:10;;;;;;;0.30;0.20;;;14.60;99.90;;;;;;5106314;28;20167;-83
2023/11/08 03:03:36;;;;;;;2.43;2.33;;;14.60;99.90;;;;;;5106167;28;20383;-79
2023/11/08 03:06:03;;;;;;;0.30;0.20;;;14.60;99.90;;;;;;5105329;28;20164;-82
2023/11/08 03:08:29;;;;;;;0.30;0.20;;;14.60;99.90;;;;;;5106291;28;20192;-85
2023/11/08 03:10:54;;;;;;;0.30;0.20;;;14.60;99.90;;;;;;5105886;28;20392;-81
2023/11/08 03:13:20;;;;;;;0.30;0.20;;;14.60;99.90;;;;;;5104503;28;20239;-86
2023/11/08 03:15:49;;;;;;;0.30;0.20;;;14.60;99.90;;;;;;5105285;28;20163;-78
2023/11/08 03:18:17;;;;;;;0.30;0.30;;;14.60;99.90;;;;;;5104538;28;20483;-78
2023/11/08 03:20:43;;;;;;;1.43;1.33;;;14.50;99.90;;;;;;5104465;28;20920;-77
2023/11/08 03:23:09;;;;;;;0.30;0.20;;;14.50;99.90;;;;;;5104563;28;20451;-77
2023/11/08 03:25:34;;;;;;;0.50;0.50;;;14.50;99.90;;;;;;5105787;28;20281;-83
2023/11/08 03:28:00;;;;;;;0.30;0.20;;;14.40;99.90;;;;;;5104157;28;20569;-84
2023/11/08 03:30:25;;;;;;;0.30;0.20;;;14.40;99.90;;;;;;5106154;28;20176;-85
2023/11/08 03:32:54;;;;;;;0.30;0.20;;;14.40;99.90;;;;;;5104102;28;20418;-85
2023/11/08 03:35:20;;;;;;;0.30;0.20;;;14.30;99.90;;;;;;5109270;28;20652;-78
2023/11/08 03:37:46;;;;;;;0.30;0.20;;;14.30;99.90;;;;;;5108009;28;20621;-78
2023/11/08 03:40:12;;;;;;;0.30;0.20;;;14.30;99.90;;;;;;5111175;28;20523;-87
2023/11/08 03:42:39;;;;;;;0.30;0.20;;;14.30;99.90;;;;;;5109915;28;20501;-78
2023/11/08 03:45:06;;;;;;;0.30;0.20;;;14.30;99.90;;;;;;5108446;28;20423;-86
2023/11/08 03:47:31;;;;;;;0.30;0.20;;;14.40;99.90;;;;;;5108110;28;20624;-86
2023/11/08 03:49:58;;;;;;;0.30;0.20;;;14.40;99.90;;;;;;5109251;28;20891;-78
2023/11/08 03:52:23;;;;;;;0.30;0.20;;;14.40;99.90;;;;;;5108191;28;20228;-78
2023/11/08 03:54:53;;;;;;;0.30;0.20;;;14.40;99.90;;;;;;5107637;28;20471;-86
2023/11/08 03:57:21;;;;;;;0.30;0.30;;;14.40;99.90;;;;;;5108074;28;20215;-86
2023/11/08 03:59:50;;;;;;;0.30;0.20;;;14.40;99.90;;;;;;5108141;28;20847;-86
2023/11/08 04:02:20;;;;;;;0.30;0.20;;;14.40;99.90;;;;;;5107087;28;20416;-78
2023/11/08 04:04:47;;;;;;;0.30;0.20;;;14.50;99.90;;;;;;5107597;28;20432;-79
2023/11/08 04:07:13;;;;;;;0.30;0.20;;;14.40;99.90;;;;;;5107802;28;20416;-78
2023/11/08 04:09:43;;;;;;;0.30;0.20;;;14.50;99.90;;;;;;5112378;28;20443;-77
2023/11/08 04:12:10;;;;;;;0.97;0.97;;;14.50;99.90;;;;;;5108370;28;20827;-78
2023/11/08 04:14:37;;;;;;;0.70;0.70;;;14.50;99.90;;;;;;5108992;28;20464;-79
2023/11/08 04:17:02;;;;;;;0.30;0.20;;;14.50;99.90;;;;;;5107249;28;20758;-78
2023/11/08 04:19:28;;;;;;;0.30;0.20;;;14.50;99.90;;;;;;5107725;28;20455;-86
2023/11/08 04:21:54;;;;;;;0.30;0.20;;;14.50;99.90;;;;;;5108718;28;20168;-78
2023/11/08 04:24:19;;;;;;;0.30;0.20;;;14.40;99.90;;;;;;5108679;28;20482;-86
2023/11/08 04:26:45;;;;;;;0.30;0.30;;;14.40;99.90;;;;;;5109104;28;20186;-81
2023/11/08 04:29:13;;;;;;;0.30;0.20;;;14.40;99.90;;;;;;5107344;28;20292;-78
2023/11/08 04:31:39;;;;;;;0.30;0.20;;;14.30;99.90;;;;;;5107390;28;20404;-78
2023/11/08 04:34:04;;;;;;;0.30;0.20;;;14.30;99.90;;;;;;5108830;27;20419;-78
2023/11/08 04:36:30;;;;;;;0.30;0.20;;;14.30;99.90;;;;;;5108505;28;20573;-78
2023/11/08 04:38:59;;;;;;;1.60;1.50;;;14.30;99.90;;;;;;5106941;28;20327;-86
2023/11/08 04:41:25;;;;;;;0.30;0.20;;;14.20;99.90;;;;;;5106683;28;20774;-77
2023/11/08 04:43:51;;;;;;;0.30;0.20;;;14.20;99.90;;;;;;5108847;28;20446;-79
2023/11/08 04:46:18;;;;;;;0.30;0.20;;;14.10;99.90;;;;;;5107008;28;20412;-78
2023/11/08 04:48:46;;;;;;;0.30;0.20;;;14.10;99.90;;;;;;5108868;28;20442;-88
2023/11/08 04:51:12;;;;;;;0.30;0.30;;;14.10;99.90;;;;;;5109349;28;20416;-88
2023/11/08 04:53:38;;;;;;;0.30;0.30;;;14.10;99.90;;;;;;5107296;28;21036;-87
2023/11/08 04:56:04;;;;;;;0.30;0.20;;;14.00;99.90;;;;;;5107879;28;20435;-77
2023/11/08 04:58:31;;;;;;;0.30;0.20;;;14.00;99.90;;;;;;5106693;28;20483;-78
2023/11/08 05:00:56;;;;;;;0.30;0.20;;;14.00;99.90;;;;;;5105241;28;20408;-86
2023/11/08 05:03:22;;;;;;;1.07;1.07;;;14.00;99.90;;;;;;5106543;28;20452;-87
2023/11/08 05:05:48;;;;;;;0.30;0.20;;;14.00;99.90;;;;;;5106902;27;20631;-86
2023/11/08 05:08:14;;;;;;;0.30;0.20;;;14.00;99.90;;;;;;5107931;28;20481;-86
2023/11/08 05:10:39;;;;;;;0.30;0.20;;;14.00;99.90;;;;;;5106316;28;20182;-78
2023/11/08 05:13:06;;;;;;;0.30;0.20;;;13.90;99.90;;;;;;5107655;28;20303;-77
2023/11/08 05:15:31;;;;;;;0.30;0.20;;;13.80;99.90;;;;;;5105953;28;20221;-85
2023/11/08 05:17:58;;;;;;;0.30;0.20;;;13.70;99.90;;;;;;5106345;27;21020;-77
2023/11/08 05:20:25;;;;;;;0.40;0.40;;;13.60;99.90;;;;;;5102011;28;20435;-78
2023/11/08 05:22:53;;;;;;;1.47;1.40;;;13.50;99.90;;;;;;5106262;27;20462;-86
2023/11/08 05:25:19;;;;;;;0.30;0.20;;;13.50;99.90;;;;;;5105823;28;20947;-77
2023/11/08 05:27:44;;;;;;;0.33;0.30;;;13.50;99.90;;;;;;5102822;28;20444;-77
2023/11/08 05:30:10;;;;;;;0.30;0.20;;;13.40;99.90;;;;;;5104228;28;20445;-83
2023/11/08 05:32:36;;;;;;;0.30;0.20;;;13.40;99.90;;;;;;5099446;28;20176;-77
2023/11/08 05:35:03;;;;;;;0.30;0.20;;;13.30;99.90;;;;;;5100694;28;20940;-78
2023/11/08 05:37:29;;;;;;;0.30;0.20;;;13.20;99.90;;;;;;5097621;28;20742;-78
2023/11/08 05:39:55;;;;;;;0.30;0.30;;;13.10;99.90;;;;;;5100315;28;20509;-87
2023/11/08 05:42:23;;;;;;;0.30;0.20;;;13.10;99.90;;;;;;5095731;28;20427;-78
2023/11/08 05:44:50;;;;;;;0.30;0.30;;;13.00;99.90;;;;;;5099481;28;20465;-86
2023/11/08 05:47:16;;;;;;;0.30;0.20;;;12.90;99.90;;;;;;5102446;28;20424;-78
2023/11/08 05:49:42;;;;;;;0.30;0.20;;;12.90;99.90;;;;;;5104351;28;20459;-86
2023/11/08 05:52:08;;;;;;;0.30;0.20;;;12.70;99.90;;;;;;5104517;28;20412;-78
2023/11/08 05:54:34;;;;;;;0.30;0.20;;;12.70;99.90;;;;;;5104247;28;20511;-78
2023/11/08 05:57:00;;;;;;;0.30;0.20;;;12.60;99.90;;;;;;5103019;28;20693;-78
2023/11/08 05:59:27;;;;;;;0.30;0.20;;;12.60;99.90;;;;;;5094600;28;20443;-85
2023/11/08 06:01:53;;;;;;;0.30;0.20;;;12.60;99.90;;;;;;5097036;28;20502;-86
2023/11/08 06:04:19;;;;;;;0.30;0.20;;;12.50;99.90;;;;;;5098130;28;20677;-78
2023/11/08 06:06:45;;;;;;;0.30;0.20;;;12.50;99.90;;;;;;5100210;28;20345;-86
2023/11/08 06:09:13;;;;;;;0.40;0.40;;;12.40;99.90;;;;;;5102138;28;20478;-86
2023/11/08 06:11:39;;;;;;;0.53;0.53;;;12.40;99.90;;;;;;5098887;28;20184;-78
2023/11/08 06:14:05;;;;;;;0.30;0.20;;;12.40;99.90;;;;;;5110742;27;20746;-86
2023/11/08 06:16:30;;;;;;;0.30;0.20;;;12.30;99.90;;;;;;5099591;28;20187;-78
2023/11/08 06:18:56;;;;;;;0.30;0.20;;;12.20;99.90;;;;;;5097876;28;20479;-86
2023/11/08 06:21:22;;;;;;;0.30;0.20;;;12.20;99.90;;;;;;5099786;28;20172;-78
2023/11/08 06:23:48;;;;;;;0.30;0.20;;;12.10;99.90;;;;;;5098578;28;20225;-86
2023/11/08 06:26:15;;;;;;;0.30;0.20;;;12.10;99.90;;;;;;5113873;27;20602;-78
2023/11/08 06:28:40;;;;;;;0.30;0.20;;;12.10;99.90;;;;;;5098816;28;20215;-87
2023/11/08 06:31:06;;;;;;;0.30;0.20;;;12.10;99.90;;;;;;5102155;28;20599;-85
2023/11/08 06:33:31;;;;;;;0.30;0.20;;;12.00;99.90;;;;;;5100028;28;20204;-78
2023/11/08 06:35:59;;;;;;;0.30;0.20;;;12.00;99.90;;;;;;5100060;28;20637;-78
2023/11/08 06:38:27;;;;;;;0.30;0.20;;;12.00;99.90;;;;;;5099702;27;20220;-86
2023/11/08 06:40:56;;;;;;;0.30;0.20;;;12.00;99.90;;;;;;5099236;28;20215;-86
2023/11/08 06:43:22;;;;;;;0.30;0.20;;;12.00;99.90;;;;;;5101132;28;20604;-78
2023/11/08 06:45:51;;;;;;;0.30;0.20;;;12.00;99.90;;;;;;5101740;28;20191;-78
2023/11/08 06:48:16;;;;;;;0.30;0.20;;;12.00;99.90;;;;;;5117457;27;20208;-86
2023/11/08 06:50:43;;;;;;;0.30;0.20;;;12.00;99.90;;;;;;5099660;28;20436;-82
2023/11/08 06:53:10;;;;;;;0.30;0.20;;;12.10;99.90;;;;;;5093437;28;20204;-87
2023/11/08 06:55:35;;;;;;;0.30;0.20;;;12.10;99.90;;;;;;5099564;28;20184;-86
2023/11/08 06:58:01;;;;;;;0.30;0.20;;;12.20;99.90;;;;;;5098608;28;20496;-86
2023/11/08 07:00:28;;;;;;;0.30;0.20;;;12.30;99.90;;;;;;5098687;28;20632;-78
2023/11/08 07:02:53;;;;;;;0.40;0.20;;;12.40;99.90;;;;;;5097385;28;20202;-77
2023/11/08 07:05:19;;;;;;;0.30;0.20;;;12.50;99.90;;;;;;5098759;28;20184;-87
2023/11/08 07:07:46;;;;;;;0.40;0.40;;;12.70;99.90;;;;;;5102567;28;20264;-78
2023/11/08 07:10:12;;;;;;;0.30;0.20;;;12.90;99.90;;;;;;5104818;28;20759;-87
2023/11/08 07:12:41;;;;;;;0.30;0.20;;;13.00;99.90;;;;;;5106606;28;20816;-77
2023/11/08 07:15:07;;;;;;;1.57;1.47;;;13.10;99.90;;;;;;5104969;28;20489;-86
2023/11/08 07:17:36;;;;;;;0.30;0.20;;;13.20;99.90;;;;;;5115907;27;20901;-78
2023/11/08 07:20:05;;;;;;;0.30;0.20;;;13.40;99.90;;;;;;5104250;28;20461;-85
2023/11/08 07:22:30;;;;;;;0.30;0.20;;;13.60;99.90;;;;;;5103420;27;20419;-86
2023/11/08 07:24:56;;;;;;;0.30;0.20;;;14.00;99.90;;;;;;5104813;27;20439;-86
2023/11/08 07:27:22;;;;;;;0.30;0.20;;;14.30;99.90;;;;;;5103706;27;20210;-85
2023/11/08 07:29:47;;;;;;;0.30;0.20;;;14.60;99.90;;;;;;5114514;27;20744;-86
2023/11/08 07:32:14;;;;;;;0.30;0.20;;;14.90;99.90;;;;;;5106937;28;20206;-78
2023/11/08 07:34:41;;;;;;;0.60;0.60;;;15.30;99.90;;;;;;5107428;27;20791;-87
2023/11/08 07:37:07;;;;;;;0.30;0.20;;;15.70;99.90;;;;;;5102239;28;20461;-86
2023/11/08 07:39:32;;;;;;;0.30;0.20;;;16.10;99.90;;;;;;5104657;28;20463;-79
2023/11/08 07:41:59;;;;;;;0.30;0.20;;;16.30;99.90;;;;;;5107285;28;20507;-84
2023/11/08 07:44:25;;;;;;;0.30;0.20;;;16.60;99.90;;;;;;5102986;28;20204;-79
2023/11/08 07:46:50;;;;;;;0.30;0.20;;;16.80;99.90;;;;;;5102157;28;20473;-79
2023/11/08 07:49:16;;;;;;;0.30;0.20;;;16.70;99.90;;;;;;5103214;28;20767;-86
2023/11/08 07:51:43;;;;;;;0.30;0.20;;;16.70;99.90;;;;;;5104368;28;20180;-86
2023/11/08 07:54:10;;;;;;;0.40;0.20;;;16.90;99.90;;;;;;5109380;27;20295;-79
2023/11/08 07:56:37;;;;;;;0.30;0.20;;;17.30;99.90;;;;;;5100493;28;20720;-79
2023/11/08 07:59:03;;;;;;;0.30;0.20;;;17.50;99.90;;;;;;5099545;28;21002;-79
2023/11/08 08:01:31;;;;;;;0.30;0.20;;;17.50;99.90;;;;;;5113670;27;20489;-79
2023/11/08 08:03:58;;;;;;;0.30;0.20;;;17.50;99.90;;;;;;5100830;28;21015;-79
2023/11/08 08:06:24;;;;;;;0.30;0.20;;;17.30;99.90;;;;;;5102983;28;20477;-86
2023/11/08 08:08:50;;;;;;;0.30;0.20;;;17.00;99.90;;;;;;5103448;28;20298;-78
2023/11/08 08:11:16;;;;;;;0.30;0.20;;;16.60;99.90;;;;;;5102623;28;20503;-79
2023/11/08 08:13:43;;;;;;;0.30;0.20;;;16.20;99.90;;;;;;5110456;27;20910;-86
2023/11/08 08:16:09;;;;;;;0.30;0.20;;;15.90;99.90;;;;;;5090453;28;20400;-79
2023/11/08 08:18:36;;;;;;;0.30;0.30;;;15.70;99.90;;;;;;5089681;28;20534;-87
2023/11/08 08:21:02;;;;;;;0.30;0.20;;;15.60;99.90;;;;;;5092990;28;20420;-79
2023/11/08 08:23:28;;;;;;;0.30;0.20;;;15.40;99.90;;;;;;5091546;28;21090;-79
2023/11/08 08:25:54;;;;;;;0.30;0.20;;;15.20;99.90;;;;;;5100716;28;20952;-86
2023/11/08 08:28:20;;;;;;;0.30;0.20;;;15.00;99.90;;;;;;5104415;28;20459;-78
2023/11/08 08:30:46;;;;;;;0.30;0.20;;;14.80;99.90;;;;;;5102139;28;20412;-78
2023/11/08 08:33:12;;;;;;;0.30;0.20;;;14.50;99.90;;;;;;5107268;28;20543;-87
2023/11/08 08:35:38;;;;;;;0.30;0.20;;;14.30;99.90;;;;;;5103693;28;20197;-87
2023/11/08 08:38:04;;;;;;;0.30;0.20;;;14.20;99.90;;;;;;5105723;28;20550;-78
2023/11/08 08:40:31;;;;;;;0.30;0.20;;;14.20;99.90;;;;;;5110205;27;21109;-85
2023/11/08 08:42:57;;;;;;;0.50;0.50;;;14.10;99.90;;;;;;5102127;28;20617;-78
2023/11/08 08:45:23;;;;;;;0.30;0.20;;;14.10;99.90;;;;;;5104544;28;20408;-85
2023/11/08 08:47:52;;;;;;;0.30;0.20;;;14.10;99.90;;;;;;5102435;28;20489;-86
2023/11/08 08:50:18;;;;;;;0.30;0.20;;;14.10;99.90;;;;;;5099194;28;20627;-87
2023/11/08 08:52:45;;;;;;;0.30;0.20;;;14.20;99.90;;;;;;5103544;28;20451;-78
2023/11/08 08:55:13;;;;;;;0.30;0.20;;;14.30;99.90;;;;;;5102221;28;20470;-86
2023/11/08 08:57:43;;;;;;;0.30;0.20;;;14.30;99.90;;;;;;5101588;28;20572;-86
2023/11/08 09:00:09;;;;;;;0.50;0.50;;;14.40;99.90;;;;;;5099402;28;20422;-85
2023/11/08 09:02:35;;;;;;;0.73;0.73;;;14.40;99.90;;;;;;5101063;28;20959;-77
2023/11/08 09:05:02;;;;;;;0.30;0.30;;;14.40;99.90;;;;;;5098491;28;20444;-78
2023/11/08 09:07:28;;;;;;;1.67;1.60;;;14.40;99.90;;;;;;5114031;27;20507;-78
2023/11/08 09:09:53;;;;;;;0.30;0.20;;;14.40;99.90;;;;;;5103755;27;20614;-79
2023/11/08 09:12:20;;;;;;;0.40;0.30;;;14.40;99.90;;;;;;5100257;28;20176;-87
2023/11/08 09:14:52;;;;;;;5.03;4.67;;;14.50;99.90;;;;;;5097285;27;20715;-78
2023/11/08 09:17:20;;;;;;;0.30;0.20;;;14.50;99.90;;;;;;5106267;27;20496;-86
2023/11/08 09:19:45;;;;;;;0.30;0.20;;;14.50;99.90;;;;;;5093048;28;20440;-78
2023/11/08 09:22:15;;;;;;;0.30;0.20;;;14.50;99.90;;;;;;5097917;28;20789;-85
2023/11/08 09:24:40;;;;;;;0.30;0.20;;;14.50;99.90;;;;;;5117782;27;20200;-78
2023/11/08 09:27:06;;;;;;;0.30;0.20;;;14.50;99.90;;;;;;5112072;27;20420;-78
2023/11/08 09:29:33;;;;;;;0.30;0.20;;;14.50;99.90;;;;;;5096927;28;20704;-79
2023/11/08 09:31:59;;;;;;;0.30;0.20;;;14.50;99.90;;;;;;5108991;27;20644;-86
2023/11/08 09:34:25;;;;;;;0.30;0.20;;;14.50;99.90;;;;;;5100176;28;20456;-78
2023/11/08 09:36:51;;;;;;;0.30;0.20;;;14.60;99.90;;;;;;5101655;28;20443;-78
2023/11/08 09:39:16;;;;;;;0.30;0.20;;;14.60;99.90;;;;;;5098729;28;20226;-78
2023/11/08 09:41:43;;;;;;;0.30;0.30;;;14.70;99.90;;;;;;5098477;28;20171;-87
2023/11/08 09:44:11;;;;;;;1.50;1.40;;;14.70;99.90;;;;;;5098066;28;20203;-87
2023/11/08 09:46:38;;;;;;;0.30;0.30;;;14.90;99.90;;;;;;5114980;27;20405;-79
2023/11/08 09:49:04;;;;;;;0.40;0.40;;;14.90;99.90;;;;;;5095882;28;20452;-87
2023/11/08 09:51:31;;;;;;;0.30;0.20;;;15.00;99.90;;;;;;5101004;27;20430;-79
2023/11/08 09:54:00;;;;;;;0.30;0.20;;;15.00;99.90;;;;;;5091081;28;20626;-78
2023/11/08 09:56:28;;;;;;;0.30;0.20;;;15.10;99.90;;;;;;5101122;27;20484;-78
2023/11/08 09:58:56;;;;;;;1.40;1.30;;;15.10;99.90;;;;;;5097403;28;20526;-77
2023/11/08 10:01:22;;;;;;;0.30;0.20;;;15.10;99.90;;;;;;5096007;28;20419;-78
2023/11/08 10:03:50;;;;;;;0.30;0.20;;;15.10;99.90;;;;;;5101379;28;20668;-78
2023/11/08 10:06:16;;;;;;;0.30;0.20;;;15.10;99.90;;;;;;5099319;28;20601;-86
2023/11/08 10:08:41;;;;;;;0.30;0.20;;;15.10;99.90;;;;;;5093897;28;20464;-86
2023/11/08 10:11:07;;;;;;;0.30;0.20;;;15.20;99.90;;;;;;5099872;28;20245;-78
2023/11/08 10:13:51;;;;;;;0.30;0.30;;;15.20;99.90;;;;;;5102659;28;20299;-86
2023/11/08 10:16:18;;;;;;;0.30;0.20;;;15.20;99.90;;;;;;5117819;27;20409;-78
2023/11/08 10:18:57;;;;;;;0.30;0.20;;;15.30;99.90;;;;;;5100162;28;20507;-79
2023/11/08 10:21:25;;;;;;;0.30;0.20;;;15.40;99.90;;;;;;5097246;28;20834;-78
2023/11/08 10:23:55;;;;;;;0.30;0.20;;;15.50;99.90;;;;;;5094450;28;20583;-87
2023/11/08 10:26:27;;;;;;;0.30;0.20;;;15.70;99.90;;;;;;5094512;28;20420;-87
2023/11/08 10:29:03;;;;;;;0.30;0.20;;;15.70;99.90;;;;;;5096287;28;21066;-85
2023/11/08 10:31:40;;;;;;;0.30;0.20;;;15.70;99.90;;;;;;5099258;27;20431;-86
2023/11/08 10:34:08;;;;;;;0.30;0.20;;;15.80;99.90;;;;;;5100904;27;21007;-86
2023/11/08 10:36:35;;;;;;;0.30;0.20;;;15.80;99.90;;;;;;5097518;28;20436;-86
2023/11/08 10:39:04;;;;;;;0.30;0.20;;;15.80;99.90;;;;;;5099298;28;20975;-85
2023/11/08 10:41:29;;;;;;;0.30;0.20;;;15.80;99.90;;;;;;5094204;28;21391;-78
2023/11/08 10:44:10;;;;;;;0.30;0.20;;;15.80;99.90;;;;;;5093911;28;20455;-85
2023/11/08 10:46:36;;;;;;;0.30;0.20;;;15.80;99.90;;;;;;5095828;28;20584;-86
2023/11/08 10:49:04;;;;;;;0.30;0.20;;;15.80;99.90;;;;;;5092316;28;20466;-85
2023/11/08 10:51:32;;;;;;;0.30;0.20;;;15.80;99.90;;;;;;5092313;28;20439;-85
2023/11/08 10:53:58;;;;;;;0.30;0.20;;;15.90;99.90;;;;;;5096139;28;20464;-86
2023/11/08 10:56:25;;;;;;;0.30;0.20;;;15.90;99.90;;;;;;5089228;28;20415;-79
2023/11/08 10:58:57;;;;;;;0.30;0.20;;;15.90;99.90;;;;;;5103478;28;21059;-79
2023/11/08 11:01:29;;;;;;;0.30;0.20;;;15.90;99.90;;;;;;5101728;28;20424;-79
2023/11/08 11:04:00;;;;;;;0.30;0.20;;;15.80;99.90;;;;;;5109694;27;20480;-87
2023/11/08 11:06:27;;;;;;;0.30;0.20;;;15.80;99.90;;;;;;5095244;28;20455;-79
2023/11/08 11:08:55;;;;;;;0.30;0.20;;;15.90;99.90;;;;;;5100675;28;20472;-79
2023/11/08 11:11:22;;;;;;;5.03;2.10;;;15.80;99.90;;;;;;5098385;28;20610;-86
2023/11/08 11:13:55;;;;;;;0.30;0.20;;;15.90;99.90;;;;;;5095986;28;20448;-79
2023/11/08 11:16:27;;;;;;;0.30;0.20;;;15.90;99.90;;;;;;5098205;28;20535;-79
2023/11/08 11:19:01;;;;;;;0.30;0.20;;;15.90;99.90;;;;;;5097766;28;21089;-87
2023/11/08 11:21:37;;;;;;;0.30;0.20;;;15.90;99.90;;;;;;5095910;28;20821;-79
2023/11/08 11:24:32;;;;;;;0.30;0.20;;;15.90;99.90;;;;;;5099144;28;20463;-86
2023/11/08 11:26:58;;;;;;;0.40;0.30;;;15.80;99.90;;;;;;5098579;28;20843;-86
2023/11/08 11:29:26;;;;;;;0.30;0.20;;;15.80;99.90;;;;;;5097951;28;20460;-79
2023/11/08 11:31:53;;;;;;;0.30;0.20;;;15.90;99.90;;;;;;5104518;28;20474;-86
2023/11/08 11:34:31;;;;;;;0.30;0.20;;;15.90;99.90;;;;;;5097108;28;20448;-87
2023/11/08 11:37:29;;;;;;;0.30;0.20;;;15.90;99.90;;;;;;5094467;28;20783;-79
2023/11/08 11:39:55;;;;;;;0.30;0.20;;;16.00;99.90;;;;;;5062265;28;20448;-86
2023/11/08 11:42:25;;;;;;;0.30;0.20;;;16.00;99.90;;;;;;5114506;27;20455;-85
2023/11/08 11:44:57;;;;;;;0.30;0.20;;;16.10;99.90;;;;;;5092758;28;20467;-79
2023/11/08 11:47:28;;;;;;;0.30;0.20;;;16.20;99.90;;;;;;5097563;28;21000;-79
2023/11/08 11:50:05;;;;;;;0.30;0.20;;;16.20;99.90;;;;;;5094247;28;20508;-79
2023/11/08 11:52:32;;;;;;;0.30;0.20;;;16.20;99.90;;;;;;5092095;28;20481;-83
2023/11/08 11:54:59;;;;;;;0.30;0.20;;;16.20;99.90;;;;;;5122823;27;20608;-79
2023/11/08 11:57:26;;;;;;;0.30;0.20;;;16.10;99.90;;;;;;5095852;28;20834;-79
2023/11/08 11:59:54;;;;;;;0.30;0.20;;;16.10;99.90;;;;;;5092230;28;20443;-86
2023/11/08 12:02:20;;;;;;;0.30;0.20;;;16.00;99.90;;;;;;5119762;27;20503;-85
2023/11/08 12:04:49;;;;;;;0.30;0.20;;;15.90;99.90;;;;;;5096144;28;21261;-79
2023/11/08 12:07:16;;;;;;;0.30;0.20;;;15.90;99.90;;;;;;5098144;28;20410;-79
2023/11/08 12:09:43;;;;;;;0.30;0.20;;;15.90;99.90;;;;;;5097553;28;20498;-87
2023/11/08 12:12:10;;;;;;;0.53;0.53;;;15.90;99.90;;;;;;5099521;28;20506;-87
2023/11/08 12:14:47;;;;;;;0.30;0.20;;;15.90;99.90;;;;;;5100838;28;20483;-79
2023/11/08 12:17:13;;;;;;;0.30;0.20;;;15.90;99.90;;;;;;5101851;28;20427;-86
2023/11/08 12:19:39;;;;;;;0.30;0.20;;;15.80;99.90;;;;;;5126742;27;20584;-87
2023/11/08 12:22:05;;;;;;;0.30;0.20;;;15.80;99.90;;;;;;5097361;28;20416;-78
2023/11/08 12:24:32;;;;;;;0.30;0.20;;;15.80;99.90;;;;;;5098700;28;20462;-85
2023/11/08 12:26:58;;;;;;;0.30;0.20;;;15.80;99.90;;;;;;5101575;28;20254;-86
2023/11/08 12:29:24;;;;;;;0.30;0.20;;;15.80;99.90;;;;;;5095046;28;20505;-79
2023/11/08 12:31:51;;;;;;;4.03;2.00;;;15.80;99.90;;;;;;5094784;28;21104;-85
2023/11/08 12:34:17;;;;;;;0.30;0.20;;;15.70;99.90;;;;;;5097799;28;20757;-79
2023/11/08 12:36:44;;;;;;;0.30;0.20;;;15.80;99.90;;;;;;5094548;28;20941;-86
2023/11/08 12:39:16;;;;;;;0.30;0.20;;;15.80;99.90;;;;;;5094348;28;20487;-87
2023/11/08 12:41:46;;;;;;;0.30;0.20;;;15.80;99.90;;;;;;5095226;28;20849;-78
2023/11/08 12:44:13;;;;;;;0.30;0.20;;;15.80;99.90;;;;;;5095397;28;20537;-86
2023/11/08 12:46:53;;;;;;;0.30;0.20;;;15.90;99.90;;;;;;5098725;27;20666;-79